METAR AND TAF INFORMATION

METAR FOR TNCM
ADDS - METARS form results

(0100 UTC 05 December 2022)
Data provider http://aviationweather.gov/metar/data/
 
Forecast for: TNCM (ST MAARTEN JULIA, SX)
Text: TNCM 042300Z 0500/0524 32005KT 9999 SCT018
Forecast period: 0000 UTC 05 December 2022 to 0000 UTC 06 December 2022
Forecast type: FROM: standard forecast or significant change
Winds: from the NW (320 degrees) at 6 MPH (5 knots; 2.6 m/s)
Visibility: 6 or more miles (10+ km)
Ceiling: at least 12,000 feet AGL
Clouds: scattered clouds at 1800 feet AGL
Weather: no significant weather forecast for this period

 

AIRPORT MAP

 

RUNWAY INFORMATION

Runway 09 Runway length 7708 ft Runway width 148 ft
Runway elevation 11 ft Runway displaced threshold 162 ft Runway heading 81
Runway 27 Runway length 7708 ft Runway width 148 ft
Runway elevation 11 ft Runway displaced threshold 394 ft Runway heading 261
Runway 10 Runway length 7152 ft Runway width 148 ft
Runway elevation 12 ft Runway displaced threshold 0 ft Runway heading 81
Runway 28 Runway length 7152 ft Runway width 148 ft
Runway elevation 9 ft Runway displaced threshold 0 ft Runway heading 261

 

AIRPORT FREQUENCIES

Type APP Name JULIANA AP Frequency 128.95 MHZ
Type TWR Name JULIANA TW Frequency 118.7 MHZ

 

AIRPORT NEAR NAVIGATION AIDS

Type NDB Name St.mMarten Frequency 284 KHZ
Type VOR-DME Name St.mMarten Frequency 113000 KHZ